Smit Tondoon — VHIE — position and weather

sailwx.info

Track history (hours):
 
Tides and Currents Weather Stations Pressure Air Temp Water Temp Dewpoint Dewpoint Depression Visibility Wind Speed Wind Dir Waves Ship Positions

Smit Tondoon

Last reported at 2014-Sep-17 11:22 UTC. Time now 2014-Sep-19 03:53 UTC.
Position S 23°50' E 151°16'.

Length 30 m; draft 5.5 m.

Type: Tug. MMSI: 503648000.

Date/timePositionNaut miles runAvg speedWind from/ knotsBaromVisibWave heightAir tempDewpointWater temp
2014-Sep-17 11:22S 23°50' E 151°16'0 0.0
2014-Sep-17 10:31S 23°50' E 151°16'0 0.1
2014-Sep-17 08:24S 23°50' E 151°16'0 0.0
2014-Sep-16 17:21S 23°50' E 151°16'0 0.0
2014-Sep-16 15:29S 23°50' E 151°16'2 0.5
2014-Sep-16 12:31S 23°49' E 151°15'  
2014-Sep-12 13:30S 25°48' E 153°20'1310.6
2014-Sep-12 12:14S 26°02' E 153°19'810.9
2014-Sep-12 11:30S 26°10' E 153°18'1511.0
2014-Sep-12 10:10S 26°24' E 153°17'710.9
2014-Sep-12 09:33S 26°31' E 153°17'1010.1
2014-Sep-12 08:34S 26°41' E 153°14'1110.9
2014-Sep-12 07:33S 26°51' E 153°09'1212.1
2014-Sep-12 06:33S 27°02' E 153°15'10 9.9
2014-Sep-12 05:33S 27°11' E 153°18'1111.2
2014-Sep-12 04:33S 27°20' E 153°11'8 7.8
2014-Sep-12 03:33S 27°27' E 153°06'2 1.9
2014-Sep-12 02:33S 27°27' E 153°04'0 0.5
2014-Sep-12 01:33S 27°27' E 153°05'0 0.0
2014-Sep-12 00:33S 27°27' E 153°05'0 0.0
2014-Sep-11 23:34S 27°27' E 153°05'0 0.0
2014-Sep-11 22:32S 27°27' E 153°05'0 0.0
2014-Sep-11 21:33S 27°27' E 153°05'0 0.0
2014-Sep-11 04:33S 27°27' E 153°05'0 0.0
2014-Sep-11 00:22S 27°27' E 153°05'0 0.1
2014-Sep-10 23:33S 27°27' E 153°05'0 0.0
2014-Sep-10 22:33S 27°27' E 153°05'0 0.0
2014-Sep-10 21:34S 27°27' E 153°05'  
Track history (hours):
 
Tides and Currents Weather Stations Pressure Air Temp Water Temp Dewpoint Dewpoint Depression Visibility Wind Speed Wind Dir Waves Ship Positions

Smit Tondoon

Last reported at 2014-Sep-17 11:22 UTC. Time now 2014-Sep-19 03:53 UTC.
Position S 23°50' E 151°16'.

Length 30 m; draft 5.5 m.

Type: Tug. MMSI: 503648000.

Date/timePositionNaut miles runAvg speedWind from/ knotsBaromVisibWave heightAir tempDewpointWater temp
2014-Sep-17 11:22S 23°50' E 151°16'0 0.0
2014-Sep-17 10:31S 23°50' E 151°16'0 0.1
2014-Sep-17 08:24S 23°50' E 151°16'0 0.0
2014-Sep-16 17:21S 23°50' E 151°16'0 0.0
2014-Sep-16 15:29S 23°50' E 151°16'2 0.5
2014-Sep-16 12:31S 23°49' E 151°15'  
2014-Sep-12 13:30S 25°48' E 153°20'1310.6
2014-Sep-12 12:14S 26°02' E 153°19'810.9
2014-Sep-12 11:30S 26°10' E 153°18'1511.0
2014-Sep-12 10:10S 26°24' E 153°17'710.9
2014-Sep-12 09:33S 26°31' E 153°17'1010.1
2014-Sep-12 08:34S 26°41' E 153°14'1110.9
2014-Sep-12 07:33S 26°51' E 153°09'1212.1
2014-Sep-12 06:33S 27°02' E 153°15'10 9.9
2014-Sep-12 05:33S 27°11' E 153°18'1111.2
2014-Sep-12 04:33S 27°20' E 153°11'8 7.8
2014-Sep-12 03:33S 27°27' E 153°06'2 1.9
2014-Sep-12 02:33S 27°27' E 153°04'0 0.5
2014-Sep-12 01:33S 27°27' E 153°05'0 0.0
2014-Sep-12 00:33S 27°27' E 153°05'0 0.0
2014-Sep-11 23:34S 27°27' E 153°05'0 0.0
2014-Sep-11 22:32S 27°27' E 153°05'0 0.0
2014-Sep-11 21:33S 27°27' E 153°05'0 0.0
2014-Sep-11 04:33S 27°27' E 153°05'0 0.0
2014-Sep-11 00:22S 27°27' E 153°05'0 0.1
2014-Sep-10 23:33S 27°27' E 153°05'0 0.0
2014-Sep-10 22:33S 27°27' E 153°05'0 0.0
2014-Sep-10 21:34S 27°27' E 153°05'  

Dump ship's entire track history